createdAt,value
2023-02-03T05:29:22.162Z,20.63
2023-02-03T05:34:23.845Z,19.43
2023-02-03T05:39:25.527Z,19.53
2023-02-03T05:44:28.336Z,19.60
2023-02-03T05:49:30.056Z,18.87
2023-02-03T05:54:31.840Z,18.73
2023-02-03T05:59:33.655Z,19.10
2023-02-03T06:04:35.386Z,19.10
2023-02-03T06:09:37.109Z,19.20
2023-02-03T06:14:38.777Z,18.27
2023-02-03T06:19:40.462Z,19.03
2023-02-03T06:24:42.504Z,19.07
2023-02-03T06:29:44.159Z,18.90
2023-02-03T06:34:45.805Z,18.63
2023-02-03T06:39:47.429Z,18.53
2023-02-03T06:44:49.344Z,18.67
2023-02-03T06:49:52.361Z,18.87
2023-02-03T06:54:54.003Z,20.00
2023-02-03T06:59:55.705Z,18.80
2023-02-03T07:04:57.567Z,19.53
2023-02-03T07:09:59.510Z,19.80
2023-02-03T07:15:01.221Z,19.17
2023-02-03T07:20:03.689Z,19.47
2023-02-03T07:25:07.578Z,19.60
2023-02-03T07:30:09.896Z,20.40
2023-02-03T07:35:11.700Z,21.10
2023-02-03T07:40:14.568Z,21.07
2023-02-03T07:45:18.472Z,20.33
2023-02-03T07:50:21.094Z,19.70
2023-02-03T07:55:23.131Z,20.00
2023-02-03T08:00:25.806Z,20.60
2023-02-03T08:05:28.087Z,20.73
2023-02-03T08:10:30.176Z,20.10
2023-02-03T08:15:32.189Z,19.67
2023-02-03T08:20:34.172Z,19.90
2023-02-03T08:25:35.810Z,20.20
2023-02-03T08:30:39.091Z,20.83
2023-02-03T08:35:41.188Z,20.67
2023-02-03T08:40:43.153Z,20.20
2023-02-03T08:45:44.968Z,19.67
2023-02-03T08:50:52.055Z,20.50
2023-02-03T08:55:54.614Z,19.80
2023-02-03T09:00:56.774Z,20.20
2023-02-03T09:05:58.555Z,20.37
2023-02-03T09:11:00.320Z,20.37
2023-02-03T09:16:01.956Z,19.33
2023-02-03T09:21:13.915Z,20.63
2023-02-03T09:26:22.721Z,19.80
2023-02-03T09:31:24.464Z,20.60
2023-02-03T09:36:26.855Z,20.53
2023-02-03T09:41:31.571Z,20.40
2023-02-03T09:46:39.952Z,20.60
2023-02-03T09:51:47.534Z,21.97
2023-02-03T09:56:52.540Z,21.10
2023-02-03T10:02:09.647Z,20.93
2023-02-03T10:07:43.385Z,21.50
2023-02-03T10:12:57.104Z,20.93
2023-02-03T10:18:06.606Z,20.80
2023-02-03T10:23:16.444Z,20.93
2023-02-03T10:28:20.999Z,20.20
2023-02-03T10:33:29.794Z,20.33
2023-02-03T10:39:15.511Z,20.20
2023-02-03T10:44:17.231Z,20.50
2023-02-03T10:49:19.601Z,20.70
2023-02-03T10:54:34.417Z,20.87
2023-02-03T10:59:41.160Z,21.27
2023-02-03T11:04:42.858Z,21.23
2023-02-03T11:09:44.690Z,20.27
2023-02-03T11:14:51.624Z,20.40
2023-02-03T11:20:13.135Z,20.37
2023-02-03T11:25:25.949Z,21.03
2023-02-03T11:30:32.285Z,20.67
2023-02-03T11:35:38.041Z,21.20
2023-02-03T11:40:41.531Z,20.20
2023-02-03T11:45:44.821Z,21.00
2023-02-03T11:50:56.499Z,21.17
2023-02-03T11:56:14.792Z,20.93
2023-02-03T12:01:41.663Z,21.67
2023-02-03T12:06:59.760Z,20.87
2023-02-03T12:12:30.903Z,20.93
2023-02-03T12:17:50.892Z,21.20
2023-02-03T12:23:02.417Z,21.40
2023-02-03T12:28:06.905Z,21.53
2023-02-03T12:33:26.548Z,21.10
2023-02-03T12:38:52.313Z,21.33
2023-02-03T12:44:01.830Z,21.63
2023-02-03T12:49:06.077Z,20.00
2023-02-03T12:54:35.265Z,19.73
2023-02-03T12:59:40.272Z,21.10
2023-02-03T13:04:49.803Z,21.37
2023-02-03T13:10:15.499Z,21.37
2023-02-03T13:15:31.966Z,20.93
2023-02-03T13:20:36.640Z,22.27
2023-02-03T13:25:50.295Z,20.97
2023-02-03T13:31:20.220Z,21.10
2023-02-03T13:36:30.669Z,21.30
2023-02-03T13:41:58.567Z,21.20
2023-02-03T13:47:02.034Z,21.80
2023-02-03T13:52:04.843Z,21.97
2023-02-03T13:57:21.920Z,22.87
2023-02-03T14:02:23.771Z,22.17
2023-02-03T14:07:40.608Z,22.10
2023-02-03T14:12:51.591Z,21.30
2023-02-03T14:17:54.966Z,21.07
2023-02-03T14:23:06.996Z,22.20
2023-02-03T14:28:18.667Z,21.97
2023-02-03T14:33:25.681Z,22.13
2023-02-03T14:38:33.181Z,22.30
2023-02-03T14:43:46.372Z,23.03
2023-02-03T14:49:06.373Z,23.87
2023-02-03T14:54:29.786Z,22.27
2023-02-03T14:59:45.669Z,22.67
2023-02-03T15:04:50.375Z,22.03
2023-02-03T15:09:53.504Z,21.27
2023-02-03T15:15:13.413Z,21.57
2023-02-03T15:20:35.457Z,21.50
2023-02-03T15:25:38.007Z,21.47
2023-02-03T15:30:41.123Z,21.60
2023-02-03T15:35:46.108Z,21.27
2023-02-03T15:40:51.913Z,22.60
2023-02-03T15:46:13.258Z,22.10
2023-02-03T15:51:28.089Z,21.47
2023-02-03T15:56:43.902Z,20.33
2023-02-03T16:01:45.735Z,20.63
2023-02-03T16:06:50.373Z,21.90
2023-02-03T16:12:06.051Z,19.33
2023-02-03T16:17:23.517Z,20.97
2023-02-03T16:22:29.267Z,20.53
2023-02-03T16:27:33.429Z,21.10
2023-02-03T16:32:54.145Z,20.37
2023-02-03T16:38:14.588Z,21.10
2023-02-03T16:43:36.027Z,21.27
2023-02-03T16:48:56.169Z,20.47
2023-02-03T16:53:57.813Z,21.23
2023-02-03T16:58:59.706Z,20.97
2023-02-03T17:04:02.078Z,21.40
2023-02-03T17:09:03.968Z,22.03
2023-02-03T17:14:05.669Z,21.13
2023-02-03T17:19:13.341Z,22.27
2023-02-03T17:24:15.102Z,22.00
2023-02-03T17:29:16.774Z,21.30
2023-02-03T17:34:18.430Z,23.43
2023-02-03T17:55:22.827Z,21.10
2023-02-03T18:00:30.398Z,21.23
2023-02-03T18:05:32.869Z,20.87
2023-02-03T18:10:34.909Z,20.60
2023-02-03T18:15:38.543Z,20.00
2023-02-03T18:20:40.213Z,20.23
2023-02-03T18:25:41.900Z,20.40
2023-02-03T18:30:43.629Z,20.47
2023-02-03T18:35:45.289Z,20.57
2023-02-03T18:40:47.129Z,20.53
2023-02-03T18:45:49.239Z,19.83
2023-02-03T18:50:50.948Z,20.13
2023-02-03T18:55:52.672Z,20.70
2023-02-03T19:00:56.171Z,20.60
2023-02-03T19:05:57.804Z,20.00
2023-02-03T19:10:59.684Z,20.30
2023-02-03T19:16:02.832Z,19.70
2023-02-03T19:21:04.758Z,19.60
2023-02-03T19:26:06.899Z,19.47
2023-02-03T19:31:14.164Z,19.77
2023-02-03T19:36:16.188Z,19.60
2023-02-03T19:41:17.993Z,20.37
2023-02-03T19:46:23.285Z,19.60
2023-02-03T19:51:24.953Z,21.47
2023-02-03T19:56:27.171Z,20.20
2023-02-03T20:01:29.950Z,21.20
2023-02-03T20:06:31.893Z,20.20
2023-02-03T20:11:34.448Z,20.10
2023-02-03T20:16:36.523Z,19.50
2023-02-03T20:21:38.312Z,19.07
2023-02-03T20:26:40.756Z,19.50
2023-02-03T20:31:42.851Z,20.20
2023-02-03T20:36:44.615Z,18.97
2023-02-03T20:41:46.679Z,19.37
2023-02-03T20:46:48.689Z,18.97
2023-02-03T20:51:50.555Z,18.23
2023-02-03T20:56:52.238Z,18.87
2023-02-03T21:01:54.340Z,18.83
2023-02-03T21:06:56.310Z,18.90
2023-02-03T21:11:57.979Z,18.33
2023-02-03T21:16:59.741Z,19.00
2023-02-03T21:22:19.600Z,19.17
2023-02-03T21:27:24.307Z,18.33
2023-02-03T21:32:40.637Z,18.73
2023-02-03T21:37:42.412Z,18.93
2023-02-03T21:42:45.998Z,18.67
2023-02-03T21:47:52.000Z,18.27
2023-02-03T21:52:53.832Z,18.50
2023-02-03T21:57:55.521Z,18.27
2023-02-03T22:03:01.380Z,17.90
2023-02-03T22:08:23.103Z,18.63
2023-02-03T22:13:25.577Z,18.90
2023-02-03T22:18:27.384Z,19.67
2023-02-03T22:23:29.505Z,19.93
2023-02-03T22:28:31.196Z,19.67
2023-02-03T22:33:33.903Z,19.47
2023-02-03T22:38:36.536Z,20.27
2023-02-03T22:43:38.516Z,19.50
2023-02-03T22:48:40.484Z,19.40
2023-02-03T22:53:42.277Z,19.83
2023-02-03T22:58:43.991Z,19.40
2023-02-03T23:03:45.650Z,19.93
2023-02-03T23:08:47.335Z,19.70
2023-02-03T23:13:49.480Z,20.23
2023-02-03T23:18:51.277Z,19.90
2023-02-03T23:23:52.973Z,19.47
2023-02-03T23:28:54.632Z,20.37
